sensor_id;sensor_type;location;lat;lon;timestamp;P1;durP1;ratioP1;P2;durP2;ratioP2
59167;SDS011;70412;55.048;73.268;2023-09-08T00:02:54;66.47;;;30.02;;
59167;SDS011;70412;55.048;73.268;2023-09-08T00:05:57;68.13;;;28.43;;
59167;SDS011;70412;55.048;73.268;2023-09-08T00:08:59;71.70;;;29.73;;
59167;SDS011;70412;55.048;73.268;2023-09-08T00:12:02;73.22;;;26.92;;
59167;SDS011;70412;55.048;73.268;2023-09-08T00:15:07;68.15;;;26.88;;
59167;SDS011;70412;55.048;73.268;2023-09-08T00:18:10;69.03;;;26.87;;
59167;SDS011;70412;55.048;73.268;2023-09-08T00:21:13;66.47;;;25.60;;
59167;SDS011;70412;55.048;73.268;2023-09-08T00:24:16;65.80;;;25.52;;
59167;SDS011;70412;55.048;73.268;2023-09-08T00:27:19;62.17;;;25.40;;
59167;SDS011;70412;55.048;73.268;2023-09-08T00:30:22;59.47;;;23.60;;
59167;SDS011;70412;55.048;73.268;2023-09-08T00:33:24;57.58;;;25.33;;
59167;SDS011;70412;55.048;73.268;2023-09-08T00:36:27;57.03;;;25.65;;
59167;SDS011;70412;55.048;73.268;2023-09-08T00:39:30;59.50;;;25.00;;
59167;SDS011;70412;55.048;73.268;2023-09-08T00:42:32;74.93;;;26.65;;
59167;SDS011;70412;55.048;73.268;2023-09-08T00:45:40;72.00;;;25.33;;
59167;SDS011;70412;55.048;73.268;2023-09-08T00:48:44;60.60;;;25.13;;
59167;SDS011;70412;55.048;73.268;2023-09-08T00:51:48;80.28;;;28.42;;
59167;SDS011;70412;55.048;73.268;2023-09-08T00:54:50;68.45;;;27.17;;
59167;SDS011;70412;55.048;73.268;2023-09-08T00:57:52;75.45;;;28.10;;
59167;SDS011;70412;55.048;73.268;2023-09-08T01:00:55;69.38;;;26.90;;
59167;SDS011;70412;55.048;73.268;2023-09-08T01:04:00;75.68;;;27.05;;
59167;SDS011;70412;55.048;73.268;2023-09-08T01:07:03;103.90;;;38.57;;
59167;SDS011;70412;55.048;73.268;2023-09-08T01:10:06;144.75;;;52.58;;
59167;SDS011;70412;55.048;73.268;2023-09-08T01:13:21;226.70;;;99.93;;
59167;SDS011;70412;55.048;73.268;2023-09-08T01:16:23;176.35;;;73.57;;
59167;SDS011;70412;55.048;73.268;2023-09-08T01:19:26;126.88;;;55.38;;
59167;SDS011;70412;55.048;73.268;2023-09-08T01:26:23;88.15;;;35.80;;
59167;SDS011;70412;55.048;73.268;2023-09-08T01:29:10;84.15;;;33.25;;
59167;SDS011;70412;55.048;73.268;2023-09-08T01:32:15;81.25;;;32.95;;
59167;SDS011;70412;55.048;73.268;2023-09-08T01:35:18;76.53;;;30.13;;
59167;SDS011;70412;55.048;73.268;2023-09-08T01:38:21;61.35;;;29.25;;
59167;SDS011;70412;55.048;73.268;2023-09-08T01:41:23;56.45;;;26.33;;
59167;SDS011;70412;55.048;73.268;2023-09-08T01:44:31;62.48;;;25.88;;
59167;SDS011;70412;55.048;73.268;2023-09-08T01:47:34;63.30;;;25.42;;
59167;SDS011;70412;55.048;73.268;2023-09-08T01:50:36;53.25;;;22.42;;
59167;SDS011;70412;55.048;73.268;2023-09-08T01:53:39;49.40;;;22.02;;
59167;SDS011;70412;55.048;73.268;2023-09-08T01:56:42;47.17;;;18.67;;
59167;SDS011;70412;55.048;73.268;2023-09-08T01:59:44;46.72;;;16.40;;
59167;SDS011;70412;55.048;73.268;2023-09-08T02:02:46;42.33;;;14.25;;
59167;SDS011;70412;55.048;73.268;2023-09-08T02:05:49;38.45;;;12.93;;
59167;SDS011;70412;55.048;73.268;2023-09-08T02:08:51;32.80;;;11.57;;
59167;SDS011;70412;55.048;73.268;2023-09-08T02:11:54;36.55;;;12.07;;
59167;SDS011;70412;55.048;73.268;2023-09-08T02:14:57;34.97;;;13.87;;
59167;SDS011;70412;55.048;73.268;2023-09-08T02:17:59;34.00;;;13.70;;
59167;SDS011;70412;55.048;73.268;2023-09-08T02:21:02;37.55;;;14.25;;
59167;SDS011;70412;55.048;73.268;2023-09-08T02:24:05;30.00;;;11.65;;
59167;SDS011;70412;55.048;73.268;2023-09-08T02:27:10;49.83;;;17.50;;
59167;SDS011;70412;55.048;73.268;2023-09-08T02:30:13;38.17;;;18.45;;
59167;SDS011;70412;55.048;73.268;2023-09-08T02:33:15;32.38;;;11.60;;
59167;SDS011;70412;55.048;73.268;2023-09-08T02:36:18;33.28;;;10.98;;
59167;SDS011;70412;55.048;73.268;2023-09-08T02:39:28;22.73;;;9.05;;
59167;SDS011;70412;55.048;73.268;2023-09-08T02:42:30;22.52;;;7.57;;
59167;SDS011;70412;55.048;73.268;2023-09-08T02:45:43;18.05;;;6.85;;
59167;SDS011;70412;55.048;73.268;2023-09-08T02:48:45;27.00;;;6.82;;
59167;SDS011;70412;55.048;73.268;2023-09-08T02:51:49;15.32;;;6.10;;
59167;SDS011;70412;55.048;73.268;2023-09-08T02:54:51;13.52;;;5.63;;
59167;SDS011;70412;55.048;73.268;2023-09-08T02:57:54;16.87;;;4.97;;
59167;SDS011;70412;55.048;73.268;2023-09-08T03:00:57;11.00;;;5.53;;
59167;SDS011;70412;55.048;73.268;2023-09-08T03:04:00;11.13;;;3.78;;
59167;SDS011;70412;55.048;73.268;2023-09-08T03:07:04;7.85;;;4.10;;
59167;SDS011;70412;55.048;73.268;2023-09-08T03:10:06;12.00;;;3.90;;
59167;SDS011;70412;55.048;73.268;2023-09-08T03:13:09;10.95;;;3.55;;
59167;SDS011;70412;55.048;73.268;2023-09-08T03:16:12;7.32;;;3.63;;
59167;SDS011;70412;55.048;73.268;2023-09-08T03:19:14;10.48;;;4.47;;
59167;SDS011;70412;55.048;73.268;2023-09-08T03:22:16;7.57;;;3.50;;
59167;SDS011;70412;55.048;73.268;2023-09-08T03:25:18;5.88;;;3.25;;
59167;SDS011;70412;55.048;73.268;2023-09-08T03:28:21;5.78;;;3.20;;
59167;SDS011;70412;55.048;73.268;2023-09-08T03:31:25;8.45;;;3.00;;
59167;SDS011;70412;55.048;73.268;2023-09-08T03:34:30;9.67;;;3.87;;
59167;SDS011;70412;55.048;73.268;2023-09-08T03:37:35;6.40;;;3.40;;
59167;SDS011;70412;55.048;73.268;2023-09-08T03:40:40;9.77;;;3.35;;
59167;SDS011;70412;55.048;73.268;2023-09-08T03:43:43;9.20;;;3.05;;
59167;SDS011;70412;55.048;73.268;2023-09-08T03:46:47;10.02;;;3.92;;
59167;SDS011;70412;55.048;73.268;2023-09-08T03:49:50;12.60;;;3.53;;
59167;SDS011;70412;55.048;73.268;2023-09-08T03:52:52;8.30;;;3.42;;
59167;SDS011;70412;55.048;73.268;2023-09-08T03:55:55;9.27;;;3.20;;
59167;SDS011;70412;55.048;73.268;2023-09-08T03:58:58;5.97;;;3.08;;
59167;SDS011;70412;55.048;73.268;2023-09-08T04:02:00;9.40;;;2.88;;
59167;SDS011;70412;55.048;73.268;2023-09-08T04:05:03;8.48;;;2.90;;
59167;SDS011;70412;55.048;73.268;2023-09-08T04:08:06;8.18;;;2.95;;
59167;SDS011;70412;55.048;73.268;2023-09-08T04:11:09;10.15;;;3.05;;
59167;SDS011;70412;55.048;73.268;2023-09-08T04:14:12;6.05;;;2.20;;
59167;SDS011;70412;55.048;73.268;2023-09-08T04:17:15;3.75;;;2.25;;
59167;SDS011;70412;55.048;73.268;2023-09-08T04:20:17;5.32;;;2.30;;
59167;SDS011;70412;55.048;73.268;2023-09-08T04:23:20;7.28;;;2.90;;
59167;SDS011;70412;55.048;73.268;2023-09-08T04:26:22;10.40;;;2.88;;
59167;SDS011;70412;55.048;73.268;2023-09-08T04:29:26;3.95;;;2.30;;
59167;SDS011;70412;55.048;73.268;2023-09-08T04:32:28;4.45;;;2.50;;
59167;SDS011;70412;55.048;73.268;2023-09-08T04:35:32;7.85;;;2.90;;
59167;SDS011;70412;55.048;73.268;2023-09-08T04:38:35;4.95;;;2.10;;
59167;SDS011;70412;55.048;73.268;2023-09-08T04:41:38;7.95;;;2.22;;
59167;SDS011;70412;55.048;73.268;2023-09-08T04:44:42;4.10;;;2.00;;
59167;SDS011;70412;55.048;73.268;2023-09-08T04:47:45;3.38;;;2.28;;
59167;SDS011;70412;55.048;73.268;2023-09-08T04:50:49;16.27;;;8.82;;
59167;SDS011;70412;55.048;73.268;2023-09-08T04:53:53;5.72;;;2.53;;
59167;SDS011;70412;55.048;73.268;2023-09-08T04:56:56;5.60;;;3.05;;
59167;SDS011;70412;55.048;73.268;2023-09-08T05:00:00;4.07;;;2.33;;
59167;SDS011;70412;55.048;73.268;2023-09-08T05:03:04;4.65;;;2.60;;
59167;SDS011;70412;55.048;73.268;2023-09-08T05:06:07;3.90;;;2.15;;
59167;SDS011;70412;55.048;73.268;2023-09-08T05:09:10;6.90;;;2.35;;
59167;SDS011;70412;55.048;73.268;2023-09-08T05:12:13;8.55;;;2.20;;
59167;SDS011;70412;55.048;73.268;2023-09-08T05:15:16;3.75;;;2.30;;
59167;SDS011;70412;55.048;73.268;2023-09-08T05:18:23;4.63;;;2.33;;
59167;SDS011;70412;55.048;73.268;2023-09-08T05:21:29;6.30;;;1.95;;
59167;SDS011;70412;55.048;73.268;2023-09-08T05:24:32;7.32;;;2.15;;
59167;SDS011;70412;55.048;73.268;2023-09-08T05:27:35;4.13;;;2.38;;
59167;SDS011;70412;55.048;73.268;2023-09-08T05:30:38;4.60;;;2.53;;
59167;SDS011;70412;55.048;73.268;2023-09-08T05:33:41;5.10;;;1.85;;
59167;SDS011;70412;55.048;73.268;2023-09-08T05:36:43;8.43;;;2.30;;
59167;SDS011;70412;55.048;73.268;2023-09-08T05:39:47;7.45;;;2.10;;
59167;SDS011;70412;55.048;73.268;2023-09-08T05:42:49;6.15;;;1.80;;
59167;SDS011;70412;55.048;73.268;2023-09-08T05:45:52;4.20;;;1.63;;
59167;SDS011;70412;55.048;73.268;2023-09-08T05:48:55;5.07;;;2.38;;
59167;SDS011;70412;55.048;73.268;2023-09-08T05:51:58;6.15;;;2.30;;
59167;SDS011;70412;55.048;73.268;2023-09-08T05:55:02;5.97;;;2.13;;
59167;SDS011;70412;55.048;73.268;2023-09-08T05:58:04;9.07;;;2.10;;
59167;SDS011;70412;55.048;73.268;2023-09-08T06:01:09;4.35;;;1.70;;
59167;SDS011;70412;55.048;73.268;2023-09-08T06:04:11;10.98;;;2.90;;
59167;SDS011;70412;55.048;73.268;2023-09-08T06:07:14;4.47;;;2.10;;
59167;SDS011;70412;55.048;73.268;2023-09-08T06:10:17;6.90;;;2.83;;
59167;SDS011;70412;55.048;73.268;2023-09-08T06:13:22;9.48;;;3.05;;
59167;SDS011;70412;55.048;73.268;2023-09-08T06:16:25;3.78;;;2.15;;
59167;SDS011;70412;55.048;73.268;2023-09-08T06:19:28;5.03;;;2.60;;
59167;SDS011;70412;55.048;73.268;2023-09-08T06:22:30;6.38;;;2.65;;
59167;SDS011;70412;55.048;73.268;2023-09-08T06:25:34;21.60;;;11.18;;
59167;SDS011;70412;55.048;73.268;2023-09-08T06:28:39;9.43;;;4.87;;
59167;SDS011;70412;55.048;73.268;2023-09-08T06:31:44;3.75;;;2.13;;
59167;SDS011;70412;55.048;73.268;2023-09-08T06:34:47;7.25;;;3.53;;
59167;SDS011;70412;55.048;73.268;2023-09-08T06:37:49;4.75;;;2.47;;
59167;SDS011;70412;55.048;73.268;2023-09-08T06:40:52;7.85;;;3.47;;
59167;SDS011;70412;55.048;73.268;2023-09-08T06:43:56;11.60;;;3.30;;
59167;SDS011;70412;55.048;73.268;2023-09-08T06:46:59;8.15;;;3.00;;
59167;SDS011;70412;55.048;73.268;2023-09-08T06:50:02;5.40;;;2.75;;
59167;SDS011;70412;55.048;73.268;2023-09-08T06:53:06;8.10;;;2.63;;
59167;SDS011;70412;55.048;73.268;2023-09-08T06:56:10;7.20;;;2.85;;
59167;SDS011;70412;55.048;73.268;2023-09-08T06:59:13;7.30;;;2.90;;
59167;SDS011;70412;55.048;73.268;2023-09-08T07:02:16;13.43;;;4.28;;
59167;SDS011;70412;55.048;73.268;2023-09-08T07:05:32;7.90;;;3.17;;
59167;SDS011;70412;55.048;73.268;2023-09-08T07:08:36;4.40;;;2.20;;
59167;SDS011;70412;55.048;73.268;2023-09-08T07:11:38;6.72;;;2.47;;
59167;SDS011;70412;55.048;73.268;2023-09-08T07:14:42;6.10;;;2.15;;
59167;SDS011;70412;55.048;73.268;2023-09-08T07:17:45;7.25;;;2.88;;
59167;SDS011;70412;55.048;73.268;2023-09-08T07:20:48;20.20;;;4.90;;
59167;SDS011;70412;55.048;73.268;2023-09-08T07:23:52;13.48;;;3.55;;
59167;SDS011;70412;55.048;73.268;2023-09-08T07:26:56;8.45;;;3.20;;
59167;SDS011;70412;55.048;73.268;2023-09-08T07:29:59;6.68;;;2.50;;
59167;SDS011;70412;55.048;73.268;2023-09-08T07:33:02;8.57;;;3.40;;
59167;SDS011;70412;55.048;73.268;2023-09-08T07:36:06;5.20;;;2.10;;
59167;SDS011;70412;55.048;73.268;2023-09-08T07:39:12;8.65;;;3.63;;
59167;SDS011;70412;55.048;73.268;2023-09-08T07:42:14;8.73;;;4.25;;
59167;SDS011;70412;55.048;73.268;2023-09-08T07:45:17;6.65;;;2.58;;
59167;SDS011;70412;55.048;73.268;2023-09-08T07:48:19;20.98;;;8.95;;
59167;SDS011;70412;55.048;73.268;2023-09-08T07:51:22;8.65;;;3.33;;
59167;SDS011;70412;55.048;73.268;2023-09-08T07:54:24;7.97;;;2.88;;
59167;SDS011;70412;55.048;73.268;2023-09-08T07:57:27;5.18;;;2.80;;
59167;SDS011;70412;55.048;73.268;2023-09-08T08:00:31;6.00;;;2.55;;
59167;SDS011;70412;55.048;73.268;2023-09-08T08:03:34;7.70;;;3.10;;
59167;SDS011;70412;55.048;73.268;2023-09-08T08:06:37;8.50;;;2.67;;
59167;SDS011;70412;55.048;73.268;2023-09-08T08:09:40;7.72;;;3.47;;
59167;SDS011;70412;55.048;73.268;2023-09-08T08:12:43;7.85;;;3.08;;
59167;SDS011;70412;55.048;73.268;2023-09-08T08:15:45;10.05;;;2.90;;
59167;SDS011;70412;55.048;73.268;2023-09-08T08:18:49;8.40;;;3.47;;
59167;SDS011;70412;55.048;73.268;2023-09-08T08:21:51;10.40;;;3.72;;
59167;SDS011;70412;55.048;73.268;2023-09-08T08:24:54;10.40;;;4.13;;
59167;SDS011;70412;55.048;73.268;2023-09-08T08:27:56;7.18;;;3.22;;
59167;SDS011;70412;55.048;73.268;2023-09-08T08:30:59;10.83;;;3.30;;
59167;SDS011;70412;55.048;73.268;2023-09-08T08:34:02;11.65;;;3.65;;
59167;SDS011;70412;55.048;73.268;2023-09-08T08:37:05;10.02;;;3.47;;
59167;SDS011;70412;55.048;73.268;2023-09-08T08:40:08;10.82;;;4.55;;
59167;SDS011;70412;55.048;73.268;2023-09-08T08:43:14;6.68;;;2.47;;
59167;SDS011;70412;55.048;73.268;2023-09-08T08:46:34;15.80;;;7.57;;
59167;SDS011;70412;55.048;73.268;2023-09-08T08:50:01;14.13;;;6.13;;
59167;SDS011;70412;55.048;73.268;2023-09-08T08:53:05;14.85;;;6.30;;
59167;SDS011;70412;55.048;73.268;2023-09-08T08:56:11;7.57;;;3.50;;
59167;SDS011;70412;55.048;73.268;2023-09-08T08:59:13;8.25;;;4.20;;
59167;SDS011;70412;55.048;73.268;2023-09-08T09:02:16;12.70;;;2.72;;
59167;SDS011;70412;55.048;73.268;2023-09-08T09:05:20;8.70;;;3.28;;
59167;SDS011;70412;55.048;73.268;2023-09-08T09:08:23;12.13;;;4.07;;
59167;SDS011;70412;55.048;73.268;2023-09-08T09:11:26;4.60;;;2.33;;
59167;SDS011;70412;55.048;73.268;2023-09-08T09:14:32;4.60;;;2.45;;
59167;SDS011;70412;55.048;73.268;2023-09-08T09:17:36;3.45;;;2.13;;
59167;SDS011;70412;55.048;73.268;2023-09-08T09:20:40;4.97;;;2.38;;
59167;SDS011;70412;55.048;73.268;2023-09-08T09:23:54;20.80;;;9.10;;
59167;SDS011;70412;55.048;73.268;2023-09-08T09:26:57;16.70;;;7.53;;
59167;SDS011;70412;55.048;73.268;2023-09-08T09:30:00;7.10;;;3.13;;
59167;SDS011;70412;55.048;73.268;2023-09-08T09:33:03;4.75;;;2.38;;
59167;SDS011;70412;55.048;73.268;2023-09-08T09:36:07;5.15;;;2.65;;
59167;SDS011;70412;55.048;73.268;2023-09-08T09:39:10;5.70;;;2.53;;
59167;SDS011;70412;55.048;73.268;2023-09-08T09:42:14;23.35;;;11.50;;
59167;SDS011;70412;55.048;73.268;2023-09-08T09:45:17;10.35;;;4.63;;
59167;SDS011;70412;55.048;73.268;2023-09-08T09:48:20;6.22;;;2.67;;
59167;SDS011;70412;55.048;73.268;2023-09-08T09:54:30;17.52;;;9.38;;
59167;SDS011;70412;55.048;73.268;2023-09-08T09:57:33;32.15;;;20.92;;
59167;SDS011;70412;55.048;73.268;2023-09-08T10:00:37;11.25;;;6.57;;
59167;SDS011;70412;55.048;73.268;2023-09-08T10:03:57;10.93;;;4.15;;
59167;SDS011;70412;55.048;73.268;2023-09-08T10:07:01;10.75;;;3.17;;
59167;SDS011;70412;55.048;73.268;2023-09-08T10:10:03;14.35;;;3.10;;
59167;SDS011;70412;55.048;73.268;2023-09-08T10:13:07;7.53;;;3.00;;
59167;SDS011;70412;55.048;73.268;2023-09-08T10:16:13;7.50;;;3.33;;
59167;SDS011;70412;55.048;73.268;2023-09-08T10:19:18;14.33;;;5.90;;
59167;SDS011;70412;55.048;73.268;2023-09-08T10:22:23;11.95;;;5.55;;
59167;SDS011;70412;55.048;73.268;2023-09-08T10:25:34;11.38;;;4.40;;
59167;SDS011;70412;55.048;73.268;2023-09-08T10:28:40;10.18;;;4.35;;
59167;SDS011;70412;55.048;73.268;2023-09-08T10:31:44;13.85;;;4.40;;
59167;SDS011;70412;55.048;73.268;2023-09-08T10:34:47;14.18;;;3.83;;
59167;SDS011;70412;55.048;73.268;2023-09-08T10:37:50;4.80;;;1.92;;
59167;SDS011;70412;55.048;73.268;2023-09-08T10:40:53;8.30;;;2.92;;
59167;SDS011;70412;55.048;73.268;2023-09-08T10:44:16;35.88;;;23.92;;
59167;SDS011;70412;55.048;73.268;2023-09-08T10:47:20;15.52;;;7.05;;
59167;SDS011;70412;55.048;73.268;2023-09-08T10:50:30;6.07;;;2.00;;
59167;SDS011;70412;55.048;73.268;2023-09-08T10:53:57;5.53;;;2.20;;
59167;SDS011;70412;55.048;73.268;2023-09-08T10:57:06;10.90;;;3.60;;
59167;SDS011;70412;55.048;73.268;2023-09-08T11:00:17;8.30;;;2.90;;
59167;SDS011;70412;55.048;73.268;2023-09-08T11:03:25;9.75;;;3.08;;
59167;SDS011;70412;55.048;73.268;2023-09-08T11:06:29;12.68;;;3.85;;
59167;SDS011;70412;55.048;73.268;2023-09-08T11:09:38;12.76;;;4.68;;
59167;SDS011;70412;55.048;73.268;2023-09-08T11:12:40;20.23;;;3.58;;
59167;SDS011;70412;55.048;73.268;2023-09-08T11:15:43;12.15;;;3.42;;
59167;SDS011;70412;55.048;73.268;2023-09-08T11:18:46;11.30;;;3.10;;
59167;SDS011;70412;55.048;73.268;2023-09-08T11:21:49;9.13;;;3.00;;
59167;SDS011;70412;55.048;73.268;2023-09-08T11:24:52;15.85;;;4.30;;
59167;SDS011;70412;55.048;73.268;2023-09-08T11:27:58;17.60;;;3.63;;
59167;SDS011;70412;55.048;73.268;2023-09-08T11:31:02;18.95;;;4.47;;
59167;SDS011;70412;55.048;73.268;2023-09-08T11:34:05;13.80;;;4.07;;
59167;SDS011;70412;55.048;73.268;2023-09-08T11:37:11;10.02;;;3.85;;
59167;SDS011;70412;55.048;73.268;2023-09-08T11:40:15;7.95;;;3.45;;
59167;SDS011;70412;55.048;73.268;2023-09-08T11:43:18;14.05;;;4.07;;
59167;SDS011;70412;55.048;73.268;2023-09-08T11:46:21;33.97;;;9.00;;
59167;SDS011;70412;55.048;73.268;2023-09-08T11:49:24;12.55;;;3.50;;
59167;SDS011;70412;55.048;73.268;2023-09-08T11:52:27;10.40;;;3.10;;
59167;SDS011;70412;55.048;73.268;2023-09-08T11:55:30;16.23;;;4.07;;
59167;SDS011;70412;55.048;73.268;2023-09-08T11:58:32;19.70;;;4.75;;
59167;SDS011;70412;55.048;73.268;2023-09-08T12:01:38;15.52;;;4.75;;
59167;SDS011;70412;55.048;73.268;2023-09-08T12:04:41;22.02;;;5.25;;
59167;SDS011;70412;55.048;73.268;2023-09-08T12:07:44;31.55;;;8.18;;
59167;SDS011;70412;55.048;73.268;2023-09-08T12:10:46;38.40;;;8.23;;
59167;SDS011;70412;55.048;73.268;2023-09-08T12:13:49;21.38;;;5.93;;
59167;SDS011;70412;55.048;73.268;2023-09-08T12:17:04;50.22;;;13.60;;
59167;SDS011;70412;55.048;73.268;2023-09-08T12:20:14;43.53;;;14.60;;
59167;SDS011;70412;55.048;73.268;2023-09-08T12:23:20;24.27;;;5.80;;
59167;SDS011;70412;55.048;73.268;2023-09-08T12:26:28;22.05;;;5.75;;
59167;SDS011;70412;55.048;73.268;2023-09-08T12:29:31;21.80;;;6.20;;
59167;SDS011;70412;55.048;73.268;2023-09-08T12:32:34;60.65;;;20.67;;
59167;SDS011;70412;55.048;73.268;2023-09-08T12:35:38;20.83;;;5.82;;
59167;SDS011;70412;55.048;73.268;2023-09-08T12:38:41;42.42;;;10.10;;
59167;SDS011;70412;55.048;73.268;2023-09-08T12:41:49;88.85;;;45.80;;
59167;SDS011;70412;55.048;73.268;2023-09-08T12:44:51;56.95;;;30.30;;
59167;SDS011;70412;55.048;73.268;2023-09-08T12:47:57;33.13;;;14.85;;
59167;SDS011;70412;55.048;73.268;2023-09-08T12:51:01;41.78;;;19.35;;
59167;SDS011;70412;55.048;73.268;2023-09-08T12:54:04;66.60;;;30.05;;
59167;SDS011;70412;55.048;73.268;2023-09-08T12:57:08;41.65;;;16.85;;
59167;SDS011;70412;55.048;73.268;2023-09-08T13:00:10;32.53;;;14.88;;
59167;SDS011;70412;55.048;73.268;2023-09-08T13:03:13;51.20;;;22.07;;
59167;SDS011;70412;55.048;73.268;2023-09-08T13:06:16;63.08;;;23.52;;
59167;SDS011;70412;55.048;73.268;2023-09-08T13:09:18;39.63;;;16.58;;
59167;SDS011;70412;55.048;73.268;2023-09-08T13:12:22;48.27;;;19.93;;
59167;SDS011;70412;55.048;73.268;2023-09-08T13:15:24;82.07;;;26.92;;
59167;SDS011;70412;55.048;73.268;2023-09-08T13:18:27;86.00;;;29.33;;
59167;SDS011;70412;55.048;73.268;2023-09-08T13:21:29;95.63;;;30.40;;
59167;SDS011;70412;55.048;73.268;2023-09-08T13:24:32;113.30;;;31.08;;
59167;SDS011;70412;55.048;73.268;2023-09-08T13:27:35;96.38;;;28.75;;
59167;SDS011;70412;55.048;73.268;2023-09-08T13:30:38;89.68;;;29.63;;
59167;SDS011;70412;55.048;73.268;2023-09-08T13:33:40;100.07;;;28.73;;
59167;SDS011;70412;55.048;73.268;2023-09-08T13:36:43;77.97;;;27.48;;
59167;SDS011;70412;55.048;73.268;2023-09-08T13:39:45;87.75;;;25.60;;
59167;SDS011;70412;55.048;73.268;2023-09-08T13:42:48;92.70;;;21.30;;
59167;SDS011;70412;55.048;73.268;2023-09-08T13:45:51;89.18;;;23.40;;
59167;SDS011;70412;55.048;73.268;2023-09-08T13:48:53;78.60;;;23.90;;
59167;SDS011;70412;55.048;73.268;2023-09-08T13:51:56;115.40;;;26.73;;
59167;SDS011;70412;55.048;73.268;2023-09-08T13:54:59;95.72;;;27.63;;
59167;SDS011;70412;55.048;73.268;2023-09-08T13:58:01;92.85;;;26.55;;
59167;SDS011;70412;55.048;73.268;2023-09-08T14:01:06;97.45;;;30.13;;
59167;SDS011;70412;55.048;73.268;2023-09-08T14:04:09;122.38;;;38.13;;
59167;SDS011;70412;55.048;73.268;2023-09-08T14:07:12;138.13;;;52.95;;
59167;SDS011;70412;55.048;73.268;2023-09-08T14:10:15;140.85;;;49.13;;
59167;SDS011;70412;55.048;73.268;2023-09-08T14:13:18;130.50;;;41.47;;
59167;SDS011;70412;55.048;73.268;2023-09-08T14:16:21;128.50;;;40.35;;
59167;SDS011;70412;55.048;73.268;2023-09-08T14:19:24;126.30;;;37.95;;
59167;SDS011;70412;55.048;73.268;2023-09-08T14:22:26;164.15;;;42.35;;
59167;SDS011;70412;55.048;73.268;2023-09-08T14:25:29;167.45;;;47.75;;
59167;SDS011;70412;55.048;73.268;2023-09-08T14:28:32;171.18;;;58.60;;
59167;SDS011;70412;55.048;73.268;2023-09-08T14:31:36;212.28;;;60.60;;
59167;SDS011;70412;55.048;73.268;2023-09-08T14:34:39;213.98;;;61.45;;
59167;SDS011;70412;55.048;73.268;2023-09-08T14:37:41;161.02;;;60.95;;
59167;SDS011;70412;55.048;73.268;2023-09-08T14:40:44;124.75;;;47.50;;
59167;SDS011;70412;55.048;73.268;2023-09-08T14:43:55;91.40;;;40.95;;
59167;SDS011;70412;55.048;73.268;2023-09-08T14:46:58;99.40;;;37.75;;
59167;SDS011;70412;55.048;73.268;2023-09-08T14:50:00;124.28;;;63.17;;
59167;SDS011;70412;55.048;73.268;2023-09-08T14:53:04;94.50;;;43.30;;
59167;SDS011;70412;55.048;73.268;2023-09-08T14:56:08;116.32;;;50.33;;
59167;SDS011;70412;55.048;73.268;2023-09-08T14:59:12;155.70;;;63.72;;
59167;SDS011;70412;55.048;73.268;2023-09-08T15:02:14;166.32;;;77.57;;
59167;SDS011;70412;55.048;73.268;2023-09-08T15:05:19;155.68;;;71.50;;
59167;SDS011;70412;55.048;73.268;2023-09-08T15:08:22;151.82;;;68.03;;
59167;SDS011;70412;55.048;73.268;2023-09-08T15:11:25;106.53;;;51.90;;
59167;SDS011;70412;55.048;73.268;2023-09-08T15:14:28;132.90;;;62.38;;
59167;SDS011;70412;55.048;73.268;2023-09-08T15:17:31;105.15;;;53.38;;
59167;SDS011;70412;55.048;73.268;2023-09-08T15:20:34;151.05;;;79.85;;
59167;SDS011;70412;55.048;73.268;2023-09-08T15:23:37;93.75;;;44.08;;
59167;SDS011;70412;55.048;73.268;2023-09-08T15:26:39;66.43;;;30.42;;
59167;SDS011;70412;55.048;73.268;2023-09-08T15:29:42;46.22;;;22.35;;
59167;SDS011;70412;55.048;73.268;2023-09-08T15:32:44;35.17;;;17.10;;
59167;SDS011;70412;55.048;73.268;2023-09-08T15:35:47;37.38;;;16.48;;
59167;SDS011;70412;55.048;73.268;2023-09-08T15:38:50;36.70;;;16.88;;
59167;SDS011;70412;55.048;73.268;2023-09-08T15:41:52;34.58;;;15.15;;
59167;SDS011;70412;55.048;73.268;2023-09-08T15:44:55;28.08;;;13.32;;
59167;SDS011;70412;55.048;73.268;2023-09-08T15:47:59;29.98;;;14.75;;
59167;SDS011;70412;55.048;73.268;2023-09-08T15:51:02;27.70;;;13.23;;
59167;SDS011;70412;55.048;73.268;2023-09-08T15:54:04;31.85;;;14.77;;
59167;SDS011;70412;55.048;73.268;2023-09-08T15:57:07;30.58;;;12.85;;
59167;SDS011;70412;55.048;73.268;2023-09-08T16:00:11;26.83;;;12.52;;
59167;SDS011;70412;55.048;73.268;2023-09-08T16:03:13;31.83;;;14.10;;
59167;SDS011;70412;55.048;73.268;2023-09-08T16:06:16;31.15;;;11.95;;
59167;SDS011;70412;55.048;73.268;2023-09-08T16:09:20;25.95;;;12.93;;
59167;SDS011;70412;55.048;73.268;2023-09-08T16:12:22;27.08;;;12.70;;
59167;SDS011;70412;55.048;73.268;2023-09-08T16:15:25;32.22;;;12.23;;
59167;SDS011;70412;55.048;73.268;2023-09-08T16:18:30;27.35;;;12.45;;
59167;SDS011;70412;55.048;73.268;2023-09-08T16:21:33;27.15;;;12.15;;
59167;SDS011;70412;55.048;73.268;2023-09-08T16:24:36;29.30;;;12.50;;
59167;SDS011;70412;55.048;73.268;2023-09-08T16:27:38;29.08;;;12.45;;
59167;SDS011;70412;55.048;73.268;2023-09-08T16:30:41;29.00;;;13.73;;
59167;SDS011;70412;55.048;73.268;2023-09-08T16:33:43;33.33;;;13.95;;
59167;SDS011;70412;55.048;73.268;2023-09-08T16:36:46;30.13;;;12.88;;
59167;SDS011;70412;55.048;73.268;2023-09-08T16:39:48;32.85;;;13.90;;
59167;SDS011;70412;55.048;73.268;2023-09-08T16:42:51;28.80;;;13.52;;
59167;SDS011;70412;55.048;73.268;2023-09-08T16:45:53;22.02;;;11.70;;
59167;SDS011;70412;55.048;73.268;2023-09-08T16:48:56;37.38;;;14.43;;
59167;SDS011;70412;55.048;73.268;2023-09-08T16:51:58;31.95;;;13.85;;
59167;SDS011;70412;55.048;73.268;2023-09-08T16:55:01;28.73;;;13.73;;
59167;SDS011;70412;55.048;73.268;2023-09-08T16:58:05;32.00;;;13.05;;
59167;SDS011;70412;55.048;73.268;2023-09-08T17:01:08;28.23;;;13.10;;
59167;SDS011;70412;55.048;73.268;2023-09-08T17:04:12;30.35;;;13.90;;
59167;SDS011;70412;55.048;73.268;2023-09-08T17:07:14;30.50;;;12.98;;
59167;SDS011;70412;55.048;73.268;2023-09-08T17:10:17;29.70;;;11.80;;
59167;SDS011;70412;55.048;73.268;2023-09-08T17:13:20;27.35;;;11.85;;
59167;SDS011;70412;55.048;73.268;2023-09-08T17:16:25;34.65;;;12.32;;
59167;SDS011;70412;55.048;73.268;2023-09-08T17:19:28;25.33;;;11.57;;
59167;SDS011;70412;55.048;73.268;2023-09-08T17:22:30;26.60;;;11.90;;
59167;SDS011;70412;55.048;73.268;2023-09-08T17:25:42;29.63;;;11.15;;
59167;SDS011;70412;55.048;73.268;2023-09-08T17:28:45;29.42;;;11.93;;
59167;SDS011;70412;55.048;73.268;2023-09-08T17:31:47;16.88;;;8.68;;
59167;SDS011;70412;55.048;73.268;2023-09-08T17:34:50;23.98;;;10.32;;
59167;SDS011;70412;55.048;73.268;2023-09-08T17:37:57;20.70;;;9.20;;
59167;SDS011;70412;55.048;73.268;2023-09-08T17:41:00;21.13;;;8.57;;
59167;SDS011;70412;55.048;73.268;2023-09-08T17:44:02;17.90;;;7.70;;
59167;SDS011;70412;55.048;73.268;2023-09-08T17:47:05;18.85;;;7.85;;
59167;SDS011;70412;55.048;73.268;2023-09-08T17:50:08;25.73;;;8.45;;
59167;SDS011;70412;55.048;73.268;2023-09-08T17:53:11;20.02;;;8.13;;
59167;SDS011;70412;55.048;73.268;2023-09-08T17:56:14;18.88;;;7.70;;
59167;SDS011;70412;55.048;73.268;2023-09-08T17:59:16;19.33;;;7.85;;